Time;durP1;ratioP1;P1;durP2;ratioP2;P2;SDS_P1;SDS_P2;PMS_P1;PMS_P2;Temp;Humidity;BMP_temperature;BMP_pressure;BME280_temperature;BME280_humidity;BME280_pressure;Samples;Min_cycle;Max_cycle;Signal;HPM_P1;HPM_P2
2023/09/30 00:01:11;;;;;;;15.98;4.18;;;;;;;;;;5030704;28;20041;-63
2023/09/30 00:03:37;;;;;;;16.80;3.70;;;;;;;;;;5030807;28;20045;-63
2023/09/30 00:06:03;;;;;;;15.45;3.38;;;;;;;;;;5030886;28;20042;-63
2023/09/30 00:08:30;;;;;;;19.67;4.30;;;;;;;;;;5031019;28;20041;-63
2023/09/30 00:10:56;;;;;;;13.82;3.70;;;;;;;;;;5030621;28;20124;-63
2023/09/30 00:13:22;;;;;;;18.00;4.45;;;;;;;;;;5031037;28;20116;-63
2023/09/30 00:15:48;;;;;;;16.30;3.78;;;;;;;;;;5012690;28;20081;-63
2023/09/30 00:18:14;;;;;;;17.50;4.00;;;;;;;;;;5047776;28;20125;-63
2023/09/30 00:20:41;;;;;;;20.48;4.55;;;;;;;;;;5050570;28;20047;-63
2023/09/30 00:23:07;;;;;;;15.95;3.90;;;;;;;;;;5050698;28;20119;-63
2023/09/30 00:25:33;;;;;;;15.57;4.10;;;;;;;;;;5044378;28;20033;-63
2023/09/30 00:27:59;;;;;;;16.02;3.70;;;;;;;;;;5030844;28;20090;-63
2023/09/30 00:30:26;;;;;;;14.25;3.90;;;;;;;;;;5030576;28;20493;-63
2023/09/30 00:32:52;;;;;;;11.98;3.63;;;;;;;;;;5029804;28;20069;-63
2023/09/30 00:35:18;;;;;;;13.20;3.80;;;;;;;;;;5030328;28;20542;-63
2023/09/30 00:37:44;;;;;;;14.05;3.47;;;;;;;;;;5030622;28;20041;-63
2023/09/30 00:40:11;;;;;;;13.98;4.10;;;;;;;;;;5030052;28;20329;-63
2023/09/30 00:42:38;;;;;;;12.20;4.30;;;;;;;;;;5012526;28;20301;-63
2023/09/30 00:45:05;;;;;;;15.48;4.00;;;;;;;;;;5030326;28;20041;-63
2023/09/30 00:47:31;;;;;;;15.75;4.05;;;;;;;;;;5030052;28;20029;-63
2023/09/30 00:49:57;;;;;;;12.77;4.00;;;;;;;;;;5030238;28;20087;-63
2023/09/30 00:52:23;;;;;;;14.73;4.20;;;;;;;;;;5029477;28;20053;-63
2023/09/30 00:54:49;;;;;;;13.52;4.25;;;;;;;;;;5029382;28;20120;-63
2023/09/30 00:57:16;;;;;;;13.68;3.97;;;;;;;;;;5029248;28;20056;-63
2023/09/30 00:59:42;;;;;;;22.27;4.32;;;;;;;;;;5029268;28;20445;-63
2023/09/30 01:02:08;;;;;;;15.88;3.70;;;;;;;;;;5029347;28;20033;-63
2023/09/30 01:04:34;;;;;;;15.80;4.40;;;;;;;;;;5028841;28;20073;-63
2023/09/30 01:07:00;;;;;;;16.10;3.97;;;;;;;;;;5029039;28;20092;-63
2023/09/30 01:09:26;;;;;;;16.80;4.00;;;;;;;;;;5029340;28;20052;-63
2023/09/30 01:11:52;;;;;;;12.88;4.10;;;;;;;;;;5029045;28;20380;-63
2023/09/30 01:14:25;;;;;;;10.65;3.88;;;;;;;;;;5029091;28;20453;-63
2023/09/30 01:16:51;;;;;;;14.88;3.97;;;;;;;;;;5035308;28;20068;-63
2023/09/30 01:19:17;;;;;;;19.45;4.47;;;;;;;;;;5048939;28;20783;-63
2023/09/30 01:21:48;;;;;;;16.27;4.50;;;;;;;;;;5048925;28;20041;-63
2023/09/30 01:24:14;;;;;;;14.90;5.00;;;;;;;;;;5048958;28;20516;-63
2023/09/30 01:26:42;;;;;;;15.60;4.03;;;;;;;;;;5033728;28;20037;-63
2023/09/30 01:29:11;;;;;;;16.05;4.20;;;;;;;;;;5010183;28;20049;-63
2023/09/30 01:31:37;;;;;;;25.90;4.97;;;;;;;;;;5029016;28;20054;-63
2023/09/30 01:34:03;;;;;;;15.82;4.22;;;;;;;;;;5028532;28;20098;-63
2023/09/30 01:36:29;;;;;;;15.52;4.32;;;;;;;;;;5028828;28;20045;-63
2023/09/30 01:38:55;;;;;;;16.38;4.32;;;;;;;;;;5028857;28;20052;-63
2023/09/30 01:41:21;;;;;;;14.88;4.30;;;;;;;;;;5028005;28;20163;-63
2023/09/30 01:43:47;;;;;;;16.55;3.88;;;;;;;;;;5028860;28;20388;-63
2023/09/30 01:46:13;;;;;;;14.18;4.53;;;;;;;;;;5028738;28;20104;-63
2023/09/30 01:48:39;;;;;;;16.42;4.30;;;;;;;;;;5028381;28;20030;-63
2023/09/30 01:51:06;;;;;;;18.50;5.03;;;;;;;;;;4992525;28;1051618;-63
2023/09/30 01:53:32;;;;;;;13.70;4.32;;;;;;;;;;5029570;28;20064;-63
2023/09/30 01:55:58;;;;;;;12.18;3.65;;;;;;;;;;5028941;28;20053;-63
2023/09/30 01:58:25;;;;;;;19.58;4.57;;;;;;;;;;5029585;28;20176;-63
2023/09/30 02:00:51;;;;;;;18.98;5.30;;;;;;;;;;5029354;28;20046;-63
2023/09/30 02:03:17;;;;;;;12.68;4.40;;;;;;;;;;5029096;28;20254;-63
2023/09/30 02:05:43;;;;;;;13.55;4.30;;;;;;;;;;5029047;28;20041;-63
2023/09/30 02:08:09;;;;;;;19.63;4.90;;;;;;;;;;5029461;28;20041;-63
2023/09/30 02:10:36;;;;;;;16.33;4.78;;;;;;;;;;5029004;28;20463;-63
2023/09/30 02:13:05;;;;;;;16.42;4.53;;;;;;;;;;5029359;28;20507;-63
2023/09/30 02:15:32;;;;;;;12.80;4.82;;;;;;;;;;5029227;28;20041;-63
2023/09/30 02:18:00;;;;;;;17.08;4.38;;;;;;;;;;5044575;28;20045;-63
2023/09/30 02:20:30;;;;;;;14.48;4.68;;;;;;;;;;5049240;28;20436;-63
2023/09/30 02:22:56;;;;;;;14.75;5.20;;;;;;;;;;5049167;28;20056;-63
2023/09/30 02:25:22;;;;;;;14.38;4.43;;;;;;;;;;5044711;28;20037;-63
2023/09/30 02:27:48;;;;;;;13.48;5.05;;;;;;;;;;5029525;28;20041;-63
2023/09/30 02:30:16;;;;;;;17.98;4.60;;;;;;;;;;5029135;28;20542;-63
2023/09/30 02:32:43;;;;;;;17.25;4.68;;;;;;;;;;5028965;28;20406;-63
2023/09/30 02:35:13;;;;;;;19.23;4.88;;;;;;;;;;5029020;28;20049;-63
2023/09/30 02:37:41;;;;;;;12.73;4.50;;;;;;;;;;5029399;28;20092;-63
2023/09/30 02:40:09;;;;;;;20.88;5.45;;;;;;;;;;5029508;28;20049;-63
2023/09/30 02:42:38;;;;;;;18.80;4.63;;;;;;;;;;5032923;28;20046;-63
2023/09/30 02:45:05;;;;;;;23.65;5.80;;;;;;;;;;5032574;28;20041;-63
2023/09/30 02:47:31;;;;;;;14.18;4.50;;;;;;;;;;5014783;28;20492;-63
2023/09/30 02:49:58;;;;;;;18.10;5.13;;;;;;;;;;5032696;28;20041;-63
2023/09/30 02:52:25;;;;;;;11.52;4.43;;;;;;;;;;5032668;28;20061;-63
2023/09/30 02:54:51;;;;;;;21.45;5.55;;;;;;;;;;5031640;28;20060;-63
2023/09/30 02:57:20;;;;;;;20.00;5.57;;;;;;;;;;5032575;28;20120;-63
2023/09/30 02:59:46;;;;;;;15.80;5.07;;;;;;;;;;5014553;28;20045;-63
2023/09/30 03:02:12;;;;;;;14.13;4.93;;;;;;;;;;5032051;28;20095;-63
2023/09/30 03:04:38;;;;;;;17.50;5.40;;;;;;;;;;5032363;28;20046;-63
2023/09/30 03:07:04;;;;;;;14.98;5.43;;;;;;;;;;5032543;28;20029;-63
2023/09/30 03:09:31;;;;;;;15.77;5.20;;;;;;;;;;5031995;28;20042;-63
2023/09/30 03:11:59;;;;;;;19.25;5.55;;;;;;;;;;5032323;28;20037;-63
2023/09/30 03:14:25;;;;;;;20.58;4.85;;;;;;;;;;5032051;28;20052;-63
2023/09/30 03:16:51;;;;;;;19.02;5.25;;;;;;;;;;5020258;28;20051;-63
2023/09/30 03:19:18;;;;;;;12.57;4.75;;;;;;;;;;5051632;28;20052;-63
2023/09/30 03:21:43;;;;;;;16.80;5.65;;;;;;;;;;5051831;28;20377;-63
2023/09/30 03:24:09;;;;;;;18.88;5.18;;;;;;;;;;5051336;28;20114;-63
2023/09/30 03:26:36;;;;;;;13.80;4.80;;;;;;;;;;5037498;28;20436;-63
2023/09/30 03:29:05;;;;;;;16.42;5.07;;;;;;;;;;5031830;28;20052;-63
2023/09/30 03:31:31;;;;;;;15.45;5.22;;;;;;;;;;5031492;28;20056;-63
2023/09/30 03:33:58;;;;;;;14.30;4.88;;;;;;;;;;5032010;28;20041;-63
2023/09/30 03:36:27;;;;;;;16.92;5.20;;;;;;;;;;5031815;28;20412;-63
2023/09/30 03:38:54;;;;;;;11.02;4.82;;;;;;;;;;5030928;28;20125;-63
2023/09/30 03:41:20;;;;;;;17.55;5.28;;;;;;;;;;5031447;28;20068;-63
2023/09/30 03:43:47;;;;;;;15.15;5.13;;;;;;;;;;5031336;28;20117;-63
2023/09/30 03:46:14;;;;;;;18.02;4.97;;;;;;;;;;5031071;28;20476;-63
2023/09/30 03:48:40;;;;;;;14.32;5.55;;;;;;;;;;5031364;28;20507;-63
2023/09/30 03:51:13;;;;;;;15.65;5.07;;;;;;;;;;5031263;28;20049;-63
2023/09/30 03:53:39;;;;;;;16.15;5.07;;;;;;;;;;5030169;28;20065;-63
2023/09/30 03:56:06;;;;;;;15.32;5.18;;;;;;;;;;5031211;28;20045;-63
2023/09/30 03:58:32;;;;;;;12.45;4.78;;;;;;;;;;5031695;28;20116;-63
2023/09/30 04:01:00;;;;;;;19.73;5.47;;;;;;;;;;5030772;28;20445;-63
2023/09/30 04:03:29;;;;;;;15.77;5.30;;;;;;;;;;5031427;28;20048;-63
2023/09/30 04:05:56;;;;;;;13.93;5.22;;;;;;;;;;5031161;28;20124;-63
2023/09/30 04:08:22;;;;;;;11.95;5.65;;;;;;;;;;5030836;28;20517;-63
2023/09/30 04:10:49;;;;;;;18.67;6.22;;;;;;;;;;5031381;28;20117;-63
2023/09/30 04:13:15;;;;;;;17.83;5.78;;;;;;;;;;5031086;28;20052;-63
2023/09/30 04:15:41;;;;;;;17.05;5.43;;;;;;;;;;5030644;28;20049;-63
2023/09/30 04:18:07;;;;;;;14.98;5.43;;;;;;;;;;5047428;28;20041;-63
2023/09/30 04:20:33;;;;;;;19.58;5.75;;;;;;;;;;5050509;28;20049;-63
2023/09/30 04:22:59;;;;;;;15.40;5.75;;;;;;;;;;5050248;28;20234;-63
2023/09/30 04:25:25;;;;;;;15.65;5.90;;;;;;;;;;5046076;28;20069;-63
2023/09/30 04:27:51;;;;;;;17.73;5.70;;;;;;;;;;5030513;28;20041;-63
2023/09/30 04:30:18;;;;;;;18.27;5.75;;;;;;;;;;5030420;28;20369;-63
2023/09/30 04:32:44;;;;;;;19.52;5.65;;;;;;;;;;5030444;28;20037;-63
2023/09/30 04:35:10;;;;;;;16.38;6.05;;;;;;;;;;5030415;28;20045;-63
2023/09/30 04:37:37;;;;;;;19.77;6.35;;;;;;;;;;5030239;28;20201;-63
2023/09/30 04:40:07;;;;;;;15.27;5.90;;;;;;;;;;5012376;28;20088;-63
2023/09/30 04:42:36;;;;;;;12.07;5.68;;;;;;;;;;5030385;28;20500;-63
2023/09/30 04:45:02;;;;;;;19.45;6.30;;;;;;;;;;5029934;28;20407;-63
2023/09/30 04:47:28;;;;;;;14.07;6.47;;;;;;;;;;5030355;28;20373;-63
2023/09/30 04:49:54;;;;;;;14.77;6.75;;;;;;;;;;5030619;28;20106;-63
2023/09/30 04:52:20;;;;;;;18.77;6.40;;;;;;;;;;5030105;28;20488;-63
2023/09/30 04:54:46;;;;;;;15.93;6.32;;;;;;;;;;5030233;28;20167;-63
2023/09/30 04:57:12;;;;;;;14.80;6.80;;;;;;;;;;5030304;28;20547;-63
2023/09/30 04:59:39;;;;;;;16.77;7.30;;;;;;;;;;5029431;28;20091;-63
2023/09/30 05:02:05;;;;;;;18.13;7.10;;;;;;;;;;5030155;28;20391;-63
2023/09/30 05:04:30;;;;;;;15.77;6.72;;;;;;;;;;5029824;28;20037;-63
2023/09/30 05:06:56;;;;;;;18.38;7.63;;;;;;;;;;5029625;28;20511;-63
2023/09/30 05:09:22;;;;;;;17.00;7.65;;;;;;;;;;5030152;28;20037;-63
2023/09/30 05:11:49;;;;;;;24.35;8.20;;;;;;;;;;5030028;28;20041;-63
2023/09/30 05:14:16;;;;;;;16.10;8.02;;;;;;;;;;5029483;28;20114;-63
2023/09/30 05:16:43;;;;;;;15.90;7.63;;;;;;;;;;5034735;28;20039;-63
2023/09/30 05:19:09;;;;;;;20.85;7.38;;;;;;;;;;5049770;28;20063;-63
2023/09/30 05:21:36;;;;;;;15.73;7.85;;;;;;;;;;5049349;28;20045;-63
2023/09/30 05:24:03;;;;;;;16.55;8.30;;;;;;;;;;5049632;28;20048;-63
2023/09/30 05:26:28;;;;;;;18.83;8.57;;;;;;;;;;5036132;28;20038;-63
2023/09/30 05:28:54;;;;;;;17.52;8.23;;;;;;;;;;5029119;28;20043;-63
2023/09/30 05:31:21;;;;;;;26.05;8.45;;;;;;;;;;5029763;28;20045;-63
2023/09/30 05:33:48;;;;;;;15.07;7.70;;;;;;;;;;5029775;28;20049;-63
2023/09/30 05:36:13;;;;;;;17.92;8.65;;;;;;;;;;5029135;28;20125;-63
2023/09/30 05:38:40;;;;;;;20.58;8.60;;;;;;;;;;5029813;28;20459;-63
2023/09/30 05:41:06;;;;;;;19.00;7.70;;;;;;;;;;5029543;28;20042;-63
2023/09/30 05:43:32;;;;;;;19.50;7.90;;;;;;;;;;5029520;28;20124;-63
2023/09/30 05:45:58;;;;;;;19.00;8.48;;;;;;;;;;5029553;28;20045;-63
2023/09/30 05:48:24;;;;;;;21.05;9.10;;;;;;;;;;5011575;28;20037;-63
2023/09/30 05:50:50;;;;;;;20.58;8.10;;;;;;;;;;5029345;28;20391;-63
2023/09/30 05:53:16;;;;;;;17.38;8.07;;;;;;;;;;5029259;28;20120;-63
2023/09/30 05:55:43;;;;;;;18.55;9.13;;;;;;;;;;5029225;28;20099;-63
2023/09/30 05:58:18;;;;;;;15.23;9.07;;;;;;;;;;5029585;28;20037;-63
2023/09/30 06:00:44;;;;;;;21.98;9.65;;;;;;;;;;5029169;28;20069;-63
2023/09/30 06:03:10;;;;;;;20.30;8.80;;;;;;;;;;5029662;28;20041;-63
2023/09/30 06:05:40;;;;;;;20.27;8.55;;;;;;;;;;5029237;28;20088;-63
2023/09/30 06:08:08;;;;;;;18.80;9.02;;;;;;;;;;5029121;28;20049;-63
2023/09/30 06:10:35;;;;;;;17.95;8.35;;;;;;;;;;5029407;28;20049;-63
2023/09/30 06:13:02;;;;;;;17.40;9.38;;;;;;;;;;5029460;28;20049;-63
2023/09/30 06:15:28;;;;;;;21.33;9.45;;;;;;;;;;5030002;28;20118;-63
2023/09/30 06:17:55;;;;;;;22.10;8.90;;;;;;;;;;5048298;28;20048;-63
2023/09/30 06:20:22;;;;;;;20.92;9.02;;;;;;;;;;5053468;28;20265;-63
2023/09/30 06:22:51;;;;;;;21.00;8.30;;;;;;;;;;5052959;28;20450;-63
2023/09/30 06:25:18;;;;;;;22.95;9.50;;;;;;;;;;5049452;28;20060;-63
2023/09/30 06:27:44;;;;;;;20.73;9.93;;;;;;;;;;5033206;28;20044;-63
2023/09/30 06:30:10;;;;;;;18.58;8.70;;;;;;;;;;5032575;28;20502;-63
2023/09/30 06:32:36;;;;;;;24.10;10.55;;;;;;;;;;5033102;28;20052;-63
2023/09/30 06:35:03;;;;;;;17.73;9.55;;;;;;;;;;5032211;28;20045;-63
2023/09/30 06:37:29;;;;;;;22.92;9.70;;;;;;;;;;5014686;28;20059;-63
2023/09/30 06:39:56;;;;;;;20.10;8.75;;;;;;;;;;5032627;28;20045;-63
2023/09/30 06:42:22;;;;;;;20.85;10.27;;;;;;;;;;5032742;28;20056;-63
2023/09/30 06:44:48;;;;;;;21.77;9.18;;;;;;;;;;5032268;28;20033;-63
2023/09/30 06:47:14;;;;;;;25.92;9.65;;;;;;;;;;5032527;28;20046;-63
2023/09/30 06:49:40;;;;;;;17.27;9.90;;;;;;;;;;5032571;28;20107;-63
2023/09/30 06:52:07;;;;;;;19.60;9.30;;;;;;;;;;5031691;28;20056;-63
2023/09/30 06:54:32;;;;;;;24.92;9.80;;;;;;;;;;5032480;28;20041;-63
2023/09/30 06:56:59;;;;;;;17.65;9.45;;;;;;;;;;5032460;28;20048;-63
2023/09/30 06:59:26;;;;;;;21.67;10.18;;;;;;;;;;5032015;28;20052;-63
2023/09/30 07:01:52;;;;;;;18.52;9.23;;;;;;;;;;5032391;28;20052;-63
2023/09/30 07:04:18;;;;;;;22.63;11.02;;;;;;;;;;5032314;28;20040;-63
2023/09/30 07:06:44;;;;;;;22.25;11.10;;;;;;;;;;5031974;28;20033;-63
2023/09/30 07:09:11;;;;;;;21.52;10.75;;;;;;;;;;5031964;28;20041;-63
2023/09/30 07:11:38;;;;;;;23.58;10.43;;;;;;;;;;5014324;28;20045;-63
2023/09/30 07:14:04;;;;;;;24.98;10.48;;;;;;;;;;5031263;28;20111;-63
2023/09/30 07:16:30;;;;;;;21.38;9.88;;;;;;;;;;5035287;28;20044;-63
2023/09/30 07:18:56;;;;;;;25.90;10.68;;;;;;;;;;5051701;28;20037;-63
2023/09/30 07:21:21;;;;;;;25.00;11.13;;;;;;;;;;5051201;28;20041;-63
2023/09/30 07:23:48;;;;;;;22.63;11.02;;;;;;;;;;5051857;28;20044;-63
2023/09/30 07:26:14;;;;;;;21.20;11.15;;;;;;;;;;5040538;28;20048;-63
2023/09/30 07:28:40;;;;;;;22.05;11.07;;;;;;;;;;5031472;28;20096;-63
2023/09/30 07:31:06;;;;;;;22.75;11.02;;;;;;;;;;5031730;28;20522;-63
2023/09/30 07:33:32;;;;;;;20.42;11.23;;;;;;;;;;5031722;28;20120;-63
2023/09/30 07:35:58;;;;;;;25.13;10.90;;;;;;;;;;5031203;28;20120;-63
2023/09/30 07:38:24;;;;;;;21.98;11.10;;;;;;;;;;5031863;28;20052;-63
2023/09/30 07:40:50;;;;;;;25.92;11.00;;;;;;;;;;5031539;28;20045;-63
2023/09/30 07:43:17;;;;;;;22.92;11.52;;;;;;;;;;5030912;28;20306;-63
2023/09/30 07:45:43;;;;;;;24.92;10.98;;;;;;;;;;5031298;28;20037;-63
2023/09/30 07:48:09;;;;;;;24.67;11.27;;;;;;;;;;5031554;28;20041;-63
2023/09/30 07:50:39;;;;;;;21.05;10.50;;;;;;;;;;5031025;28;20062;-63
2023/09/30 07:53:05;;;;;;;22.88;10.18;;;;;;;;;;5031576;28;20088;-63
2023/09/30 07:55:31;;;;;;;21.00;10.55;;;;;;;;;;5031103;28;20495;-63
2023/09/30 07:57:59;;;;;;;23.02;10.05;;;;;;;;;;5031097;28;20669;-63
2023/09/30 08:00:25;;;;;;;21.42;10.00;;;;;;;;;;5031234;28;20061;-63
2023/09/30 08:02:51;;;;;;;21.58;10.23;;;;;;;;;;5031213;28;20353;-63
2023/09/30 08:05:17;;;;;;;21.80;11.27;;;;;;;;;;5030704;28;20037;-63
2023/09/30 08:07:43;;;;;;;20.17;10.40;;;;;;;;;;5031195;28;20179;-63
2023/09/30 08:10:13;;;;;;;16.23;9.35;;;;;;;;;;5031200;28;20163;-63
2023/09/30 08:12:39;;;;;;;20.35;9.65;;;;;;;;;;5030709;28;20484;-63
2023/09/30 08:15:06;;;;;;;26.08;9.48;;;;;;;;;;5030851;28;20463;-63
2023/09/30 08:17:33;;;;;;;20.17;10.00;;;;;;;;;;5024891;28;20049;-63
2023/09/30 08:20:00;;;;;;;22.63;10.25;;;;;;;;;;5050381;28;20037;-63
2023/09/30 08:22:27;;;;;;;19.20;9.13;;;;;;;;;;5050532;28;20048;-63
2023/09/30 08:24:54;;;;;;;21.85;9.93;;;;;;;;;;5050574;28;20067;-63
2023/09/30 08:27:20;;;;;;;17.83;9.45;;;;;;;;;;5030060;28;20044;-63
2023/09/30 08:29:46;;;;;;;20.60;9.13;;;;;;;;;;5030452;28;20042;-63
2023/09/30 08:32:12;;;;;;;18.80;10.10;;;;;;;;;;5030614;28;20073;-63
2023/09/30 08:34:39;;;;;;;26.35;10.48;;;;;;;;;;5030190;28;20071;-63
2023/09/30 08:37:05;;;;;;;20.23;10.10;;;;;;;;;;5012431;28;20103;-63
2023/09/30 08:39:30;;;;;;;23.67;10.18;;;;;;;;;;5029989;28;20419;-63
2023/09/30 08:41:57;;;;;;;16.45;8.93;;;;;;;;;;5029947;28;20472;-63
2023/09/30 08:44:23;;;;;;;20.35;9.73;;;;;;;;;;5030258;28;20069;-63
2023/09/30 08:46:49;;;;;;;17.63;9.13;;;;;;;;;;5030395;28;20087;-63
2023/09/30 08:49:15;;;;;;;20.38;9.27;;;;;;;;;;5030094;28;20061;-63
2023/09/30 08:51:42;;;;;;;17.48;9.10;;;;;;;;;;5029908;28;20068;-63
2023/09/30 08:54:08;;;;;;;22.15;10.02;;;;;;;;;;5030113;28;20381;-63
2023/09/30 08:56:34;;;;;;;18.70;9.57;;;;;;;;;;5029810;28;20037;-63
2023/09/30 08:59:02;;;;;;;19.15;9.20;;;;;;;;;;5030590;28;20041;-63
2023/09/30 09:01:29;;;;;;;21.40;9.15;;;;;;;;;;5030297;28;20046;-63
2023/09/30 09:03:56;;;;;;;20.20;9.20;;;;;;;;;;5029661;28;20057;-63
2023/09/30 09:06:22;;;;;;;21.98;9.80;;;;;;;;;;5030195;28;20094;-63
2023/09/30 09:08:48;;;;;;;18.23;7.93;;;;;;;;;;5030168;28;20112;-63
2023/09/30 09:11:14;;;;;;;18.08;8.48;;;;;;;;;;5011875;28;20124;-63
2023/09/30 09:13:53;;;;;;;16.17;8.18;;;;;;;;;;5029981;28;20038;-63
2023/09/30 09:16:19;;;;;;;22.55;8.40;;;;;;;;;;5031655;28;20144;-63
2023/09/30 09:18:47;;;;;;;16.58;6.95;;;;;;;;;;5049513;28;20041;-63
2023/09/30 09:21:13;;;;;;;18.52;8.40;;;;;;;;;;5049747;28;20080;-63
2023/09/30 09:23:40;;;;;;;17.33;8.18;;;;;;;;;;5049809;28;20037;-63
2023/09/30 09:26:07;;;;;;;17.75;8.48;;;;;;;;;;5039070;28;20041;-63
2023/09/30 09:28:38;;;;;;;22.02;7.45;;;;;;;;;;5029842;28;20038;-63
2023/09/30 09:31:20;;;;;;;17.20;7.07;;;;;;;;;;5012157;28;20043;-63
2023/09/30 09:33:45;;;;;;;17.13;7.88;;;;;;;;;;5029312;28;20049;-63
2023/09/30 09:36:11;;;;;;;16.90;6.95;;;;;;;;;;5029709;28;20044;-63
2023/09/30 09:38:44;;;;;;;16.23;7.45;;;;;;;;;;5030111;28;20472;-63
2023/09/30 09:41:10;;;;;;;16.77;6.82;;;;;;;;;;5029065;28;20133;-63
2023/09/30 09:43:40;;;;;;;14.27;6.85;;;;;;;;;;5029765;28;20468;-63
2023/09/30 09:46:08;;;;;;;14.57;6.60;;;;;;;;;;5029673;28;20148;-63
2023/09/30 09:48:37;;;;;;;16.67;7.15;;;;;;;;;;5029429;28;20507;-63
2023/09/30 09:51:08;;;;;;;21.35;7.28;;;;;;;;;;5031570;28;20061;-63
2023/09/30 09:53:37;;;;;;;16.25;6.53;;;;;;;;;;5033831;28;20190;-63
2023/09/30 09:56:04;;;;;;;16.98;6.45;;;;;;;;;;5033105;28;20446;-63
2023/09/30 09:58:33;;;;;;;13.80;6.13;;;;;;;;;;5033741;28;20049;-63
2023/09/30 10:01:00;;;;;;;14.50;5.90;;;;;;;;;;5033472;28;20056;-63
2023/09/30 10:03:26;;;;;;;13.93;5.93;;;;;;;;;;5033245;28;20064;-63
2023/09/30 10:05:52;;;;;;;13.98;5.80;;;;;;;;;;5033188;28;20033;-63
2023/09/30 10:08:21;;;;;;;11.63;5.03;;;;;;;;;;5033549;28;20033;-63
2023/09/30 10:10:47;;;;;;;15.48;5.57;;;;;;;;;;5033171;28;20049;-63
2023/09/30 10:13:31;;;;;;;13.40;6.00;;;;;;;;;;5015357;28;20471;-63
2023/09/30 10:15:57;;;;;;;15.25;5.75;;;;;;;;;;5033128;28;20052;-63
2023/09/30 10:18:23;;;;;;;16.10;5.75;;;;;;;;;;5052015;28;20037;-63
2023/09/30 10:20:51;;;;;;;12.20;5.18;;;;;;;;;;5053148;28;20037;-63
2023/09/30 10:23:26;;;;;;;13.70;5.88;;;;;;;;;;5053126;28;20135;-63
2023/09/30 10:25:57;;;;;;;9.48;4.65;;;;;;;;;;5044184;28;20092;-63
2023/09/30 10:28:33;;;;;;;12.45;3.95;;;;;;;;;;5033051;28;20125;-63
2023/09/30 10:31:10;;;;;;;13.02;4.53;;;;;;;;;;5032993;28;20048;-63
2023/09/30 10:33:36;;;;;;;10.68;3.90;;;;;;;;;;5032627;28;20419;-63
2023/09/30 10:36:03;;;;;;;11.20;3.55;;;;;;;;;;5014747;28;20136;-63
2023/09/30 10:38:35;;;;;;;16.70;4.47;;;;;;;;;;5032942;28;20103;-63
2023/09/30 10:41:05;;;;;;;12.93;3.83;;;;;;;;;;5032686;28;20056;-63
2023/09/30 10:43:31;;;;;;;15.48;3.83;;;;;;;;;;5033085;28;20127;-63
2023/09/30 10:45:58;;;;;;;14.18;3.60;;;;;;;;;;5032567;28;20065;-63
2023/09/30 10:48:27;;;;;;;10.98;2.97;;;;;;;;;;5032295;28;20111;-63
2023/09/30 10:50:58;;;;;;;8.45;2.95;;;;;;;;;;5032415;28;20279;-63
2023/09/30 10:53:27;;;;;;;14.25;3.40;;;;;;;;;;5032695;28;20053;-63
2023/09/30 10:55:57;;;;;;;8.15;3.20;;;;;;;;;;5014534;28;20499;-63
2023/09/30 10:58:39;;;;;;;8.27;3.08;;;;;;;;;;5033167;28;20091;-63
2023/09/30 11:01:05;;;;;;;14.15;4.30;;;;;;;;;;5032116;28;20045;-63
2023/09/30 11:03:31;;;;;;;14.18;3.30;;;;;;;;;;5032294;28;20045;-63
2023/09/30 11:05:57;;;;;;;12.20;2.90;;;;;;;;;;5032115;28;20033;-63
2023/09/30 11:08:24;;;;;;;9.27;2.30;;;;;;;;;;5032225;28;20045;-63
2023/09/30 11:10:51;;;;;;;12.63;2.75;;;;;;;;;;5031777;28;20492;-63
2023/09/30 11:13:17;;;;;;;8.05;2.20;;;;;;;;;;5032123;28;20099;-63
2023/09/30 11:15:44;;;;;;;8.05;2.40;;;;;;;;;;5031640;28;20056;-63
2023/09/30 11:18:14;;;;;;;9.40;2.10;;;;;;;;;;5048615;28;20124;-63
2023/09/30 11:20:40;;;;;;;9.82;2.70;;;;;;;;;;5051964;28;20048;-63
2023/09/30 11:23:06;;;;;;;9.38;2.38;;;;;;;;;;5051907;28;20037;-63
2023/09/30 11:25:39;;;;;;;6.97;2.05;;;;;;;;;;5045743;28;20041;-63
2023/09/30 11:28:18;;;;;;;11.52;2.20;;;;;;;;;;5032102;28;20069;-63
2023/09/30 11:30:57;;;;;;;6.47;1.83;;;;;;;;;;5014118;28;20388;-63
2023/09/30 11:33:24;;;;;;;11.02;1.90;;;;;;;;;;5031511;28;20037;-63
2023/09/30 11:36:01;;;;;;;9.30;2.33;;;;;;;;;;5031519;28;20045;-63
2023/09/30 11:38:30;;;;;;;7.63;2.03;;;;;;;;;;5031900;28;20045;-63
2023/09/30 11:41:02;;;;;;;6.75;1.70;;;;;;;;;;5013143;28;20450;-63
2023/09/30 11:43:29;;;;;;;8.93;2.03;;;;;;;;;;5031587;28;20441;-63
2023/09/30 11:46:04;;;;;;;7.75;1.90;;;;;;;;;;5031288;28;20047;-63
2023/09/30 11:48:30;;;;;;;9.45;1.85;;;;;;;;;;5031289;28;20037;-63
2023/09/30 11:51:00;;;;;;;5.53;2.28;;;;;;;;;;5013158;28;20512;-63
2023/09/30 11:53:27;;;;;;;6.40;2.00;;;;;;;;;;5013595;28;20120;-63
2023/09/30 11:55:56;;;;;;;6.35;1.58;;;;;;;;;;5030936;28;20556;-63
2023/09/30 11:58:22;;;;;;;7.60;1.85;;;;;;;;;;5031234;28;20514;-63
2023/09/30 12:00:50;;;;;;;8.48;1.90;;;;;;;;;;5031266;28;20041;-63
2023/09/30 12:03:16;;;;;;;6.47;1.73;;;;;;;;;;5031055;28;20045;-63
2023/09/30 12:05:45;;;;;;;7.50;1.55;;;;;;;;;;5030842;28;20041;-63
2023/09/30 12:08:11;;;;;;;4.88;1.42;;;;;;;;;;5031204;28;20071;-63
2023/09/30 12:10:38;;;;;;;7.03;1.67;;;;;;;;;;5030745;28;20123;-63
2023/09/30 12:13:04;;;;;;;5.38;1.40;;;;;;;;;;5030334;28;20053;-63
2023/09/30 12:15:30;;;;;;;6.22;1.50;;;;;;;;;;5030806;28;20045;-63
2023/09/30 12:17:56;;;;;;;8.10;2.20;;;;;;;;;;5045933;28;20052;-63
2023/09/30 12:20:22;;;;;;;6.75;1.70;;;;;;;;;;5051045;28;20044;-63
2023/09/30 12:22:48;;;;;;;4.97;1.50;;;;;;;;;;5050807;28;20095;-63
2023/09/30 12:25:16;;;;;;;4.28;1.50;;;;;;;;;;5047295;28;20048;-63
2023/09/30 12:27:42;;;;;;;5.95;1.95;;;;;;;;;;5031069;28;20037;-63
2023/09/30 12:30:08;;;;;;;4.93;1.70;;;;;;;;;;5030767;28;20548;-63
2023/09/30 12:32:34;;;;;;;8.38;1.75;;;;;;;;;;5030247;28;20042;-63
2023/09/30 12:35:01;;;;;;;4.88;1.48;;;;;;;;;;5030425;28;20491;-63
2023/09/30 12:37:27;;;;;;;5.80;1.88;;;;;;;;;;5030709;28;20126;-63
2023/09/30 12:39:53;;;;;;;4.97;1.65;;;;;;;;;;5029931;28;20477;-63
2023/09/30 12:42:19;;;;;;;7.38;1.45;;;;;;;;;;5030537;28;20506;-63
2023/09/30 12:44:45;;;;;;;5.07;1.45;;;;;;;;;;5012499;28;20500;-63
2023/09/30 12:47:11;;;;;;;8.13;2.30;;;;;;;;;;5030148;28;20439;-63
2023/09/30 12:49:37;;;;;;;5.82;1.75;;;;;;;;;;5030604;28;20361;-63
2023/09/30 12:52:03;;;;;;;7.35;2.20;;;;;;;;;;5029830;28;20057;-63
2023/09/30 12:54:29;;;;;;;5.07;1.70;;;;;;;;;;5029767;28;20041;-63
2023/09/30 12:56:55;;;;;;;5.32;1.30;;;;;;;;;;5029870;28;20045;-63
2023/09/30 12:59:25;;;;;;;8.00;1.75;;;;;;;;;;5030274;28;20075;-63
2023/09/30 13:01:51;;;;;;;6.72;1.67;;;;;;;;;;5029756;28;20103;-63
2023/09/30 13:04:18;;;;;;;5.25;1.50;;;;;;;;;;5030080;28;20384;-63
2023/09/30 13:06:45;;;;;;;8.32;1.77;;;;;;;;;;5030147;28;20069;-63
2023/09/30 13:09:11;;;;;;;10.65;2.00;;;;;;;;;;5029705;28;20084;-63
2023/09/30 13:11:38;;;;;;;6.13;1.70;;;;;;;;;;5029678;28;20106;-63
2023/09/30 13:14:04;;;;;;;7.18;1.83;;;;;;;;;;5029901;28;20041;-63
2023/09/30 13:16:30;;;;;;;5.95;1.50;;;;;;;;;;5014784;28;20037;-63
2023/09/30 13:18:56;;;;;;;6.20;1.30;;;;;;;;;;5049805;28;20041;-63
2023/09/30 13:21:22;;;;;;;5.53;1.55;;;;;;;;;;5049797;28;20550;-63
2023/09/30 13:23:48;;;;;;;5.28;1.30;;;;;;;;;;5049474;28;20033;-63
2023/09/30 13:26:14;;;;;;;5.97;1.55;;;;;;;;;;5038776;28;20041;-63
2023/09/30 13:28:40;;;;;;;5.22;1.52;;;;;;;;;;5029634;28;20427;-63
2023/09/30 13:31:07;;;;;;;7.35;1.80;;;;;;;;;;5029482;28;20049;-63
2023/09/30 13:33:33;;;;;;;6.13;1.55;;;;;;;;;;5029791;28;20049;-63
2023/09/30 13:36:00;;;;;;;5.47;1.83;;;;;;;;;;5029498;28;20069;-63
2023/09/30 13:38:26;;;;;;;6.25;1.60;;;;;;;;;;5029036;28;20053;-63
2023/09/30 13:40:52;;;;;;;5.70;1.75;;;;;;;;;;5029526;28;20469;-63
2023/09/30 13:43:18;;;;;;;8.38;1.95;;;;;;;;;;5029793;28;20039;-63
2023/09/30 13:45:44;;;;;;;8.05;1.70;;;;;;;;;;5029210;28;20037;-63
2023/09/30 13:48:11;;;;;;;8.88;1.80;;;;;;;;;;5029659;28;20076;-63
2023/09/30 13:50:37;;;;;;;3.83;1.40;;;;;;;;;;5011430;28;20401;-63
2023/09/30 13:53:03;;;;;;;7.90;1.52;;;;;;;;;;5029317;28;20059;-63
2023/09/30 13:55:29;;;;;;;5.70;1.80;;;;;;;;;;5029598;28;20069;-63
2023/09/30 13:57:55;;;;;;;8.15;2.03;;;;;;;;;;5011622;28;20072;-63
2023/09/30 14:00:21;;;;;;;7.38;1.80;;;;;;;;;;5029044;28;20045;-63
2023/09/30 14:02:47;;;;;;;6.03;1.33;;;;;;;;;;5029425;28;20565;-63
2023/09/30 14:05:13;;;;;;;9.15;1.63;;;;;;;;;;5029384;28;20038;-63
2023/09/30 14:07:43;;;;;;;7.60;1.60;;;;;;;;;;5029122;28;20145;-63
2023/09/30 14:10:10;;;;;;;5.85;1.60;;;;;;;;;;5029076;28;20057;-63
2023/09/30 14:12:37;;;;;;;6.65;2.03;;;;;;;;;;5029408;28;20393;-63
2023/09/30 14:15:05;;;;;;;7.50;1.70;;;;;;;;;;5028801;28;20041;-63
2023/09/30 14:17:31;;;;;;;6.00;1.42;;;;;;;;;;5041215;28;20045;-63
2023/09/30 14:19:57;;;;;;;4.25;1.38;;;;;;;;;;5049206;28;20037;-63
2023/09/30 14:22:23;;;;;;;6.18;1.40;;;;;;;;;;5048852;28;20045;-63
2023/09/30 14:24:49;;;;;;;5.03;1.95;;;;;;;;;;5049494;28;20033;-63
2023/09/30 14:27:15;;;;;;;7.15;1.48;;;;;;;;;;5029738;28;20033;-63
2023/09/30 14:29:43;;;;;;;5.28;1.42;;;;;;;;;;5029046;28;20037;-63